createdAt,value
2022-12-29T00:01:20.028Z,-3.92
2022-12-29T00:03:50.143Z,-3.98
2022-12-29T00:06:20.646Z,-4.02
2022-12-29T00:08:50.698Z,-4.04
2022-12-29T00:11:23.038Z,-4.01
2022-12-29T00:14:13.974Z,-4.01
2022-12-29T00:16:46.430Z,-4.02
2022-12-29T00:19:36.333Z,-4.05
2022-12-29T00:22:27.037Z,-4.09
2022-12-29T00:25:03.410Z,-4.10
2022-12-29T00:27:53.054Z,-4.10
2022-12-29T00:30:44.258Z,-4.11
2022-12-29T00:33:41.116Z,-4.13
2022-12-29T00:36:34.789Z,-4.15
2022-12-29T00:39:37.885Z,-4.14
2022-12-29T00:42:29.197Z,-4.17
2022-12-29T00:44:59.282Z,-4.19
2022-12-29T00:47:29.437Z,-4.22
2022-12-29T00:49:58.369Z,-4.21
2022-12-29T00:52:28.305Z,-4.21
2022-12-29T00:54:58.327Z,-4.24
2022-12-29T00:57:28.682Z,-4.23
2022-12-29T00:59:59.070Z,-4.22
2022-12-29T01:02:30.070Z,-4.27
2022-12-29T01:05:00.624Z,-4.32
2022-12-29T01:07:31.104Z,-4.35
2022-12-29T01:10:16.099Z,-4.39
2022-12-29T01:12:46.591Z,-4.41
2022-12-29T01:15:17.181Z,-4.43
2022-12-29T01:17:48.653Z,-4.45
2022-12-29T01:20:18.823Z,-4.46
2022-12-29T01:22:49.510Z,-4.47
2022-12-29T01:25:23.168Z,-4.46
2022-12-29T01:27:53.432Z,-4.48
2022-12-29T01:30:23.527Z,-4.52
2022-12-29T01:32:57.034Z,-4.52
2022-12-29T01:35:27.658Z,-4.51
2022-12-29T01:37:57.763Z,-4.52
2022-12-29T01:40:28.045Z,-4.53
2022-12-29T01:42:58.371Z,-4.54
2022-12-29T01:45:28.709Z,-4.52
2022-12-29T01:48:05.462Z,-4.49
2022-12-29T01:50:45.440Z,-4.47
2022-12-29T01:53:20.033Z,-4.46
2022-12-29T01:56:01.966Z,-4.45
2022-12-29T01:58:39.363Z,-4.44
2022-12-29T02:01:09.875Z,-4.45
2022-12-29T02:03:40.355Z,-4.48
2022-12-29T02:06:35.667Z,-4.48
2022-12-29T02:09:06.021Z,-4.48
2022-12-29T02:11:36.980Z,-4.49
2022-12-29T02:14:15.121Z,-4.50
2022-12-29T02:16:53.204Z,-4.52
2022-12-29T02:20:03.097Z,-4.57
2022-12-29T02:22:40.698Z,-4.61
2022-12-29T02:25:35.126Z,-4.64
2022-12-29T02:28:53.974Z,-4.69
2022-12-29T02:31:37.961Z,-4.75
2022-12-29T02:34:32.790Z,-4.75
2022-12-29T02:37:32.297Z,-4.74
2022-12-29T02:40:29.390Z,-4.73
2022-12-29T02:43:04.756Z,-4.70
2022-12-29T02:45:47.587Z,-4.67
2022-12-29T02:48:24.255Z,-4.63
2022-12-29T02:51:28.613Z,-4.62
2022-12-29T02:54:19.341Z,-4.64
2022-12-29T02:56:49.823Z,-4.65
2022-12-29T02:59:20.624Z,-4.65
2022-12-29T03:02:18.591Z,-4.64
2022-12-29T03:05:23.324Z,-4.67
2022-12-29T03:08:26.925Z,-4.70
2022-12-29T03:11:33.195Z,-4.73
2022-12-29T03:14:39.229Z,-4.79
2022-12-29T03:17:31.477Z,-4.79
2022-12-29T03:20:11.746Z,-4.83
2022-12-29T03:22:50.719Z,-4.85
2022-12-29T03:25:34.943Z,-4.86
2022-12-29T03:28:14.366Z,-4.85
2022-12-29T03:30:48.676Z,-4.83
2022-12-29T03:33:24.710Z,-4.83
2022-12-29T03:36:00.604Z,-4.84
2022-12-29T03:38:42.601Z,-4.84
2022-12-29T03:41:18.525Z,-4.85
2022-12-29T03:43:49.498Z,-4.85
2022-12-29T03:46:19.530Z,-4.84
2022-12-29T03:48:50.514Z,-4.86
2022-12-29T03:51:20.653Z,-4.88
2022-12-29T03:53:50.706Z,-4.90
2022-12-29T03:56:20.890Z,-4.91
2022-12-29T03:58:51.374Z,-4.91
2022-12-29T04:01:48.433Z,-4.90
2022-12-29T04:04:19.001Z,-4.91
2022-12-29T04:06:50.391Z,-4.90
2022-12-29T04:09:20.492Z,-4.89
2022-12-29T04:11:51.740Z,-4.90
2022-12-29T04:14:21.681Z,-4.91
2022-12-29T04:16:51.628Z,-4.92
2022-12-29T04:19:21.822Z,-4.93
2022-12-29T04:21:51.908Z,-4.94
2022-12-29T04:24:22.472Z,-4.94
2022-12-29T04:26:53.914Z,-4.94
2022-12-29T04:29:43.772Z,-4.96
2022-12-29T04:32:37.852Z,-4.97
2022-12-29T04:35:09.176Z,-4.95
2022-12-29T04:37:39.272Z,-4.94
2022-12-29T04:40:10.266Z,-4.96
2022-12-29T04:42:40.342Z,-4.97
2022-12-29T04:45:11.667Z,-4.98
2022-12-29T04:48:12.501Z,-5.01
2022-12-29T04:50:51.285Z,-5.05
2022-12-29T04:53:23.123Z,-5.09
2022-12-29T04:55:56.413Z,-5.12
2022-12-29T04:58:26.374Z,-5.16
2022-12-29T05:00:57.335Z,-5.19
2022-12-29T05:03:30.204Z,-5.23
2022-12-29T05:06:00.889Z,-5.27
2022-12-29T05:08:31.115Z,-5.30
2022-12-29T05:11:03.284Z,-5.34
2022-12-29T05:13:33.277Z,-5.35
2022-12-29T05:16:04.372Z,-5.36
2022-12-29T05:18:34.513Z,-5.35
2022-12-29T05:21:04.655Z,-5.35
2022-12-29T05:23:34.701Z,-5.33
2022-12-29T05:26:09.622Z,-5.31
2022-12-29T05:29:08.803Z,-5.30
2022-12-29T05:31:39.031Z,-5.29
2022-12-29T05:34:11.000Z,-5.28
2022-12-29T05:36:44.648Z,-5.26
2022-12-29T05:39:14.791Z,-5.27
2022-12-29T05:41:46.632Z,-5.28
2022-12-29T05:44:19.195Z,-5.32
2022-12-29T05:46:56.389Z,-5.35
2022-12-29T05:49:53.887Z,-5.28
2022-12-29T05:52:33.461Z,-5.19
2022-12-29T05:55:03.888Z,-5.11
2022-12-29T05:57:35.051Z,-5.11
2022-12-29T06:00:13.076Z,-5.16
2022-12-29T06:02:47.999Z,-5.21
2022-12-29T06:05:19.607Z,-5.23
2022-12-29T06:07:50.029Z,-5.27
2022-12-29T06:10:21.085Z,-5.29
2022-12-29T06:12:58.004Z,-5.30
2022-12-29T06:15:28.280Z,-5.33
2022-12-29T06:17:58.649Z,-5.37
2022-12-29T06:20:29.431Z,-5.35
2022-12-29T06:22:59.500Z,-5.35
2022-12-29T06:25:32.291Z,-5.33
2022-12-29T06:28:04.170Z,-5.32
2022-12-29T06:30:34.515Z,-5.30
2022-12-29T06:33:05.842Z,-5.28
2022-12-29T06:35:36.719Z,-5.24
2022-12-29T06:38:07.450Z,-5.21
2022-12-29T06:40:37.691Z,-5.16
2022-12-29T06:43:41.545Z,-5.07
2022-12-29T06:46:50.310Z,-4.98
2022-12-29T06:49:20.815Z,-4.92
2022-12-29T06:51:50.829Z,-4.81
2022-12-29T06:54:21.099Z,-4.67
2022-12-29T06:56:51.272Z,-4.52
2022-12-29T06:59:21.721Z,-4.40
2022-12-29T07:01:52.696Z,-4.26
2022-12-29T07:04:23.337Z,-4.12
2022-12-29T07:06:53.480Z,-3.97
2022-12-29T07:09:23.569Z,-3.77
2022-12-29T07:11:54.061Z,-3.60
2022-12-29T07:14:24.460Z,-3.48
2022-12-29T07:16:55.002Z,-3.31
2022-12-29T07:19:25.086Z,-3.11
2022-12-29T07:21:56.478Z,-2.91
2022-12-29T07:24:27.175Z,-2.75
2022-12-29T07:26:57.439Z,-2.63
2022-12-29T07:29:27.439Z,-2.50
2022-12-29T07:31:57.843Z,-2.37
2022-12-29T07:34:28.267Z,-2.23
2022-12-29T07:36:58.300Z,-2.09
2022-12-29T07:39:27.897Z,-1.97
2022-12-29T07:42:04.307Z,-1.89
2022-12-29T07:44:43.361Z,-1.84
2022-12-29T07:47:20.425Z,-1.79
2022-12-29T07:49:51.729Z,-1.75
2022-12-29T07:52:22.051Z,-1.69
2022-12-29T07:54:52.078Z,-1.56
2022-12-29T07:57:25.143Z,-1.42
2022-12-29T08:00:00.062Z,-1.33
2022-12-29T08:02:30.177Z,-1.23
2022-12-29T08:05:00.693Z,-1.11
2022-12-29T08:07:30.743Z,-1.00
2022-12-29T08:10:00.839Z,-0.87
2022-12-29T08:12:31.244Z,-0.73
2022-12-29T08:15:00.865Z,-0.67
2022-12-29T08:17:30.962Z,-0.64
2022-12-29T08:20:01.205Z,-0.54
2022-12-29T08:22:31.656Z,-0.43
2022-12-29T08:25:01.816Z,-0.31
2022-12-29T08:27:32.021Z,-0.24
2022-12-29T08:30:02.064Z,-0.13
2022-12-29T08:32:32.234Z,-0.04
2022-12-29T08:35:02.364Z,0.09
2022-12-29T08:37:34.871Z,0.21
2022-12-29T08:40:05.780Z,0.33
2022-12-29T08:42:35.929Z,0.39
2022-12-29T08:45:06.158Z,0.51
2022-12-29T08:47:36.200Z,0.63
2022-12-29T08:50:06.992Z,0.77
2022-12-29T08:52:37.524Z,0.90
2022-12-29T08:55:07.842Z,1.00
2022-12-29T08:57:37.506Z,1.09
2022-12-29T09:00:13.875Z,1.15
2022-12-29T09:02:44.392Z,1.25
2022-12-29T09:05:14.845Z,1.44
2022-12-29T09:07:47.676Z,1.66
2022-12-29T09:10:17.655Z,1.84
2022-12-29T09:12:48.246Z,2.04
2022-12-29T09:15:18.032Z,2.17
2022-12-29T09:17:48.496Z,2.35
2022-12-29T09:20:20.343Z,2.50
2022-12-29T09:22:50.817Z,2.67
2022-12-29T09:25:20.336Z,2.88
2022-12-29T09:27:55.368Z,3.05
2022-12-29T09:30:26.640Z,3.18
2022-12-29T09:32:57.064Z,3.40
2022-12-29T09:35:27.309Z,3.65
2022-12-29T09:37:57.654Z,3.78
2022-12-29T09:40:33.734Z,3.82
2022-12-29T09:43:22.907Z,3.84
2022-12-29T09:46:34.569Z,3.71
2022-12-29T09:49:32.586Z,3.71
2022-12-29T09:52:08.144Z,3.78
2022-12-29T09:55:02.954Z,3.81
2022-12-29T09:57:42.373Z,3.96
2022-12-29T10:00:23.208Z,4.07
2022-12-29T10:03:00.282Z,4.11
2022-12-29T10:05:51.839Z,4.12
2022-12-29T10:08:31.070Z,4.07
2022-12-29T10:11:45.722Z,4.20
2022-12-29T10:14:40.567Z,4.50
2022-12-29T10:17:36.375Z,4.54
2022-12-29T10:20:54.196Z,4.58
2022-12-29T10:23:31.060Z,4.85
2022-12-29T10:26:04.400Z,4.87
2022-12-29T10:28:54.750Z,4.92
2022-12-29T10:31:31.053Z,4.96
2022-12-29T10:34:07.335Z,5.07
2022-12-29T10:36:44.899Z,5.18
2022-12-29T10:39:56.872Z,5.25
2022-12-29T10:42:38.813Z,5.56
2022-12-29T10:45:16.622Z,5.85
2022-12-29T10:48:27.193Z,6.11
2022-12-29T10:51:07.135Z,6.35
2022-12-29T10:53:53.182Z,6.52
2022-12-29T10:56:37.407Z,6.65
2022-12-29T10:59:24.397Z,6.79
2022-12-29T11:02:00.699Z,7.01
2022-12-29T11:04:54.864Z,7.25
2022-12-29T11:07:27.243Z,7.45
2022-12-29T11:10:17.282Z,7.64
2022-12-29T11:13:29.045Z,7.79
2022-12-29T11:16:02.128Z,7.85
2022-12-29T11:18:43.985Z,7.91
2022-12-29T11:21:49.516Z,8.00
2022-12-29T11:24:27.626Z,7.87
2022-12-29T11:27:34.447Z,7.86
2022-12-29T11:30:23.729Z,8.00
2022-12-29T11:32:55.857Z,8.12
2022-12-29T11:35:52.397Z,8.24
2022-12-29T11:38:33.950Z,8.26
2022-12-29T11:41:05.595Z,8.34
2022-12-29T11:43:45.980Z,8.42
2022-12-29T11:46:20.694Z,8.49
2022-12-29T11:48:51.444Z,8.59
2022-12-29T11:51:47.619Z,8.66
2022-12-29T11:54:31.612Z,8.70
2022-12-29T11:57:15.946Z,8.60
2022-12-29T11:59:52.817Z,8.45
2022-12-29T12:02:42.935Z,8.29
2022-12-29T12:05:40.673Z,8.23
2022-12-29T12:08:36.093Z,8.26
2022-12-29T12:11:23.678Z,8.34
2022-12-29T12:14:19.556Z,8.36
2022-12-29T12:17:40.017Z,8.43
2022-12-29T12:20:49.320Z,8.59
2022-12-29T12:23:31.650Z,8.73
2022-12-29T12:26:39.715Z,8.73
2022-12-29T12:29:29.668Z,8.79
2022-12-29T12:32:21.210Z,8.90
2022-12-29T12:34:51.532Z,9.01
2022-12-29T12:37:38.804Z,9.06
2022-12-29T12:40:32.934Z,9.05
2022-12-29T12:43:20.710Z,9.04
2022-12-29T12:46:35.157Z,9.13
2022-12-29T12:49:32.335Z,9.06
2022-12-29T12:52:19.577Z,8.95
2022-12-29T12:55:14.210Z,8.99
2022-12-29T12:58:05.383Z,8.86
2022-12-29T13:01:02.109Z,8.79
2022-12-29T13:04:14.676Z,8.92
2022-12-29T13:07:00.033Z,8.95
2022-12-29T13:09:50.961Z,9.02
2022-12-29T13:12:45.697Z,9.11
2022-12-29T13:15:23.996Z,9.28
2022-12-29T13:18:09.060Z,9.37
2022-12-29T13:20:47.760Z,9.40
2022-12-29T13:23:37.008Z,9.43
2022-12-29T13:26:17.174Z,9.18
2022-12-29T13:28:58.629Z,9.07
2022-12-29T13:32:01.002Z,8.83
2022-12-29T13:35:03.637Z,8.97
2022-12-29T13:37:38.383Z,9.09
2022-12-29T13:40:22.798Z,9.12
2022-12-29T13:43:01.637Z,8.98
2022-12-29T13:45:35.130Z,8.65
2022-12-29T13:48:17.075Z,8.28
2022-12-29T13:50:54.449Z,7.90
2022-12-29T13:53:32.077Z,7.57
2022-12-29T13:56:05.958Z,7.20
2022-12-29T13:59:13.384Z,6.87
2022-12-29T14:02:16.864Z,6.48
2022-12-29T14:05:05.488Z,6.26
2022-12-29T14:07:40.150Z,6.06
2022-12-29T14:10:31.307Z,5.88
2022-12-29T14:13:27.286Z,5.72
2022-12-29T14:16:00.346Z,5.58
2022-12-29T14:18:34.211Z,5.46
2022-12-29T14:21:11.529Z,5.28
2022-12-29T14:23:45.437Z,5.22
2022-12-29T14:26:20.273Z,5.12
2022-12-29T14:28:51.072Z,5.00
2022-12-29T14:31:21.513Z,4.93
2022-12-29T14:34:13.006Z,4.85
2022-12-29T14:37:03.485Z,4.76
2022-12-29T14:39:46.919Z,4.67
2022-12-29T14:42:24.264Z,4.52
2022-12-29T14:45:28.252Z,4.35
2022-12-29T14:48:01.449Z,4.19
2022-12-29T14:50:45.600Z,4.16
2022-12-29T14:53:42.437Z,4.08
2022-12-29T14:56:19.599Z,3.97
2022-12-29T14:58:55.273Z,3.91
2022-12-29T15:01:33.411Z,3.84
2022-12-29T15:04:36.372Z,3.69
2022-12-29T15:07:10.531Z,3.54
2022-12-29T15:09:52.738Z,3.42
2022-12-29T15:12:31.506Z,3.38
2022-12-29T15:15:02.883Z,3.42
2022-12-29T15:17:35.809Z,3.49
2022-12-29T15:20:30.456Z,3.54
2022-12-29T15:23:12.059Z,3.55
2022-12-29T15:26:22.817Z,3.57
2022-12-29T15:28:56.094Z,3.56
2022-12-29T15:31:30.450Z,3.47
2022-12-29T15:34:30.438Z,3.41
2022-12-29T15:37:00.922Z,3.25
2022-12-29T15:39:33.017Z,3.10
2022-12-29T15:42:29.872Z,2.98
2022-12-29T15:45:10.319Z,2.81
2022-12-29T15:47:45.131Z,2.73
2022-12-29T15:50:38.554Z,2.66
2022-12-29T15:53:14.208Z,2.57
2022-12-29T15:55:45.686Z,2.49
2022-12-29T15:58:25.995Z,2.45
2022-12-29T16:00:59.548Z,2.41
2022-12-29T16:03:39.165Z,2.40
2022-12-29T16:06:26.573Z,2.39
2022-12-29T16:09:01.648Z,2.37
2022-12-29T16:11:40.081Z,2.31
2022-12-29T16:14:24.344Z,2.27
2022-12-29T16:16:54.002Z,2.24
2022-12-29T16:19:31.052Z,2.21
2022-12-29T16:22:04.037Z,2.22
2022-12-29T16:24:35.150Z,2.24
2022-12-29T16:27:33.250Z,2.26
2022-12-29T16:30:07.140Z,2.28
2022-12-29T16:32:48.458Z,2.23
2022-12-29T16:35:49.874Z,2.22
2022-12-29T16:38:23.808Z,2.20
2022-12-29T16:40:59.125Z,2.23
2022-12-29T16:43:39.479Z,2.25
2022-12-29T16:46:31.885Z,2.26
2022-12-29T16:49:02.012Z,2.27
2022-12-29T16:51:36.933Z,2.25
2022-12-29T16:54:07.161Z,2.24
2022-12-29T16:56:37.893Z,2.17
2022-12-29T16:59:34.798Z,2.11
2022-12-29T17:02:15.109Z,1.99
2022-12-29T17:04:49.782Z,1.97
2022-12-29T17:07:22.344Z,2.01
2022-12-29T17:09:54.640Z,2.02
2022-12-29T17:12:29.430Z,2.03
2022-12-29T17:15:02.565Z,2.07
2022-12-29T17:17:39.888Z,2.11
2022-12-29T17:20:31.006Z,2.13
2022-12-29T17:23:00.697Z,2.06
2022-12-29T17:25:38.031Z,2.00
2022-12-29T17:28:25.841Z,2.00
2022-12-29T17:31:00.911Z,2.04
2022-12-29T17:33:37.804Z,2.08
2022-12-29T17:36:10.045Z,2.12
2022-12-29T17:38:40.371Z,2.12
2022-12-29T17:41:15.251Z,2.12
2022-12-29T17:43:46.308Z,2.12
2022-12-29T17:46:16.704Z,2.12
2022-12-29T17:48:53.302Z,2.13
2022-12-29T17:51:24.842Z,2.13
2022-12-29T17:53:55.161Z,2.13
2022-12-29T17:56:27.681Z,2.15
2022-12-29T17:58:57.468Z,2.19
2022-12-29T18:01:32.552Z,2.21
